Spottwood, South Dakota
Current Conditions -  °F | °C
As of 11:55 AM on Wednesday 28 Jan 2015 (Local Time) from KHON Reporting Station
Scattered Clouds Scattered Clouds  
Wind Chill:   Ceiling: Unl
Heat Index:   Visibility: 10mi
Dew Point:   Wind: 5mph
Humidity: 79%   Direction: 290°WNW
Pressure: 29.71"   Gusts: NA
Location:  44.7205°N, 98.5844°W
Report Text: KHON 281755Z AUTO 29004KT 10SM SCT011 04/01 A2971 RMK AO2 SLP071 T00390006 10039 20000 50001
Loading
Personal Weather Stations






























Interactive Weather Map New forecast layout! Learn more

10-Day Weather Forecast

Advertisements
Track Severe Weather on mobile